createdAt,value
2022-09-30T00:03:11.358Z,3.70
2022-09-30T00:08:34.526Z,3.80
2022-09-30T00:13:59.646Z,3.10
2022-09-30T00:19:22.767Z,2.47
2022-09-30T00:24:46.533Z,2.97
2022-09-30T00:30:11.959Z,3.30
2022-09-30T00:35:35.097Z,3.60
2022-09-30T00:40:59.648Z,3.03
2022-09-30T00:46:29.727Z,3.33
2022-09-30T00:51:56.371Z,3.40
2022-09-30T00:57:19.552Z,3.23
2022-09-30T01:02:44.000Z,3.07
2022-09-30T01:08:10.566Z,2.50
2022-09-30T01:13:35.566Z,3.40
2022-09-30T01:19:17.605Z,3.10
2022-09-30T01:25:25.286Z,2.83
2022-09-30T01:31:04.434Z,3.80
2022-09-30T01:36:39.619Z,3.20
2022-09-30T01:42:10.053Z,2.67
2022-09-30T01:47:38.258Z,2.43
2022-09-30T01:53:07.412Z,3.10
2022-09-30T01:58:37.359Z,2.40
2022-09-30T02:04:06.293Z,2.63
2022-09-30T02:09:31.555Z,2.07
2022-09-30T02:15:00.390Z,2.20
2022-09-30T02:20:27.491Z,2.83
2022-09-30T02:25:57.154Z,3.40
2022-09-30T02:31:24.000Z,3.40
2022-09-30T02:36:52.847Z,3.23
2022-09-30T02:42:20.446Z,2.67
2022-09-30T02:47:53.216Z,3.00
2022-09-30T02:53:23.175Z,3.10
2022-09-30T02:58:47.092Z,4.13
2022-09-30T03:04:12.280Z,3.87
2022-09-30T03:09:37.190Z,3.37
2022-09-30T03:15:24.056Z,3.80
2022-09-30T03:20:53.761Z,3.60
2022-09-30T03:26:27.410Z,2.17
2022-09-30T03:31:58.954Z,3.03
2022-09-30T03:37:28.197Z,2.47
2022-09-30T03:42:56.780Z,3.33
2022-09-30T03:48:21.977Z,3.10
2022-09-30T03:53:46.594Z,3.00
2022-09-30T03:59:13.446Z,2.67
2022-09-30T04:04:36.594Z,2.40
2022-09-30T04:09:59.665Z,2.63
2022-09-30T04:15:24.131Z,3.90
2022-09-30T04:20:47.169Z,3.00
2022-09-30T04:26:13.227Z,3.23
2022-09-30T04:31:37.765Z,2.37
2022-09-30T04:37:00.815Z,2.37
2022-09-30T04:42:24.349Z,2.10
2022-09-30T04:47:49.008Z,2.47
2022-09-30T04:53:14.629Z,1.60
2022-09-30T04:58:37.780Z,2.50
2022-09-30T05:04:02.640Z,2.40
2022-09-30T05:09:25.890Z,2.97
2022-09-30T05:14:49.146Z,3.07
2022-09-30T05:20:16.592Z,2.63
2022-09-30T05:25:41.985Z,3.00
2022-09-30T05:31:06.265Z,2.93
2022-09-30T05:36:30.833Z,2.80
2022-09-30T05:41:53.886Z,2.13
2022-09-30T05:47:17.293Z,2.80
2022-09-30T05:52:41.775Z,3.00
2022-09-30T05:58:04.891Z,2.70
2022-09-30T06:03:27.980Z,3.37
2022-09-30T06:08:52.808Z,2.47
2022-09-30T06:14:18.784Z,2.50
2022-09-30T06:19:41.838Z,2.93
2022-09-30T06:25:07.490Z,3.27
2022-09-30T06:30:34.881Z,3.53
2022-09-30T06:35:58.359Z,3.67
2022-09-30T06:41:27.523Z,3.73
2022-09-30T06:46:53.836Z,3.93
2022-09-30T06:52:17.207Z,5.70
2022-09-30T06:57:43.656Z,5.00
2022-09-30T07:03:09.947Z,5.27
2022-09-30T07:08:35.091Z,5.40
2022-09-30T07:13:59.491Z,4.90
2022-09-30T07:19:22.946Z,5.27
2022-09-30T07:24:46.243Z,6.90
2022-09-30T07:30:19.261Z,5.13
2022-09-30T07:35:54.791Z,5.60
2022-09-30T07:41:19.595Z,5.73
2022-09-30T07:46:45.242Z,4.23
2022-09-30T07:52:09.065Z,4.13
2022-09-30T07:57:32.076Z,4.10
2022-09-30T08:02:58.027Z,4.23
2022-09-30T08:08:21.088Z,3.80
2022-09-30T08:13:44.180Z,4.20
2022-09-30T08:19:08.631Z,3.10
2022-09-30T08:24:31.841Z,2.57
2022-09-30T08:29:57.326Z,2.50
2022-09-30T08:35:22.769Z,1.70
2022-09-30T08:40:56.382Z,1.40
2022-09-30T08:46:27.816Z,1.20
2022-09-30T08:51:53.197Z,1.13
2022-09-30T08:57:16.222Z,1.33
2022-09-30T09:02:45.795Z,1.30
2022-09-30T09:08:17.273Z,1.10
2022-09-30T09:13:47.876Z,0.90
2022-09-30T09:19:12.672Z,1.33
2022-09-30T09:24:39.223Z,1.00
2022-09-30T09:30:07.532Z,0.90
2022-09-30T09:35:37.687Z,0.63
2022-09-30T09:41:11.025Z,1.00
2022-09-30T09:46:38.925Z,1.13
2022-09-30T09:52:16.896Z,0.67
2022-09-30T09:57:41.661Z,0.97
2022-09-30T10:03:06.454Z,0.67
2022-09-30T10:08:31.270Z,0.80
2022-09-30T10:13:57.836Z,0.77
2022-09-30T10:19:23.041Z,1.23
2022-09-30T10:24:46.111Z,1.60
2022-09-30T10:30:11.057Z,1.43
2022-09-30T10:35:34.158Z,1.53
2022-09-30T10:40:57.790Z,2.47
2022-09-30T10:46:27.749Z,2.93
2022-09-30T10:51:51.269Z,2.77
2022-09-30T10:57:16.963Z,2.80
2022-09-30T11:02:48.248Z,2.73
2022-09-30T11:08:16.456Z,2.10
2022-09-30T11:13:44.055Z,2.17
2022-09-30T11:19:11.798Z,1.80
2022-09-30T11:24:38.416Z,1.20
2022-09-30T11:30:05.217Z,1.10
2022-09-30T11:35:42.978Z,0.70
2022-09-30T11:41:09.917Z,0.60
2022-09-30T11:46:45.400Z,0.60
2022-09-30T11:52:17.080Z,0.87
2022-09-30T11:57:46.634Z,0.50
2022-09-30T12:03:14.428Z,0.60
2022-09-30T12:08:42.162Z,0.50
2022-09-30T12:14:07.447Z,0.40
2022-09-30T12:19:33.771Z,0.80
2022-09-30T12:24:58.192Z,0.70
2022-09-30T12:30:23.947Z,0.60
2022-09-30T12:36:09.112Z,0.50
2022-09-30T12:41:42.711Z,0.60
2022-09-30T12:47:15.747Z,0.40
2022-09-30T12:52:39.356Z,1.20
2022-09-30T12:58:05.117Z,0.70
2022-09-30T13:03:28.208Z,0.50
2022-09-30T13:09:19.153Z,0.83
2022-09-30T13:14:44.253Z,1.03
2022-09-30T13:20:40.583Z,1.10
2022-09-30T13:26:04.116Z,0.53
2022-09-30T13:31:32.237Z,0.80
2022-09-30T13:36:59.779Z,0.90
2022-09-30T13:42:29.907Z,0.87
2022-09-30T13:48:03.106Z,1.10
2022-09-30T13:53:35.596Z,0.70
2022-09-30T13:59:18.931Z,0.93
2022-09-30T14:05:00.638Z,1.07
2022-09-30T14:10:35.956Z,1.47
2022-09-30T14:16:20.350Z,1.30
2022-09-30T14:21:46.253Z,1.50
2022-09-30T14:27:26.144Z,1.67
2022-09-30T14:32:50.433Z,2.80
2022-09-30T14:38:19.034Z,2.80
2022-09-30T14:43:43.831Z,1.52
2022-09-30T14:49:09.529Z,1.17
2022-09-30T14:54:36.432Z,1.17
2022-09-30T15:00:23.756Z,2.20
2022-09-30T15:05:48.444Z,1.10
2022-09-30T15:11:21.300Z,1.23
2022-09-30T15:16:48.560Z,1.10
2022-09-30T15:22:16.485Z,1.13
2022-09-30T15:27:51.018Z,1.10
2022-09-30T15:33:29.221Z,1.50
2022-09-30T15:39:01.628Z,1.10
2022-09-30T15:44:41.933Z,1.10
2022-09-30T15:50:24.051Z,1.90
2022-09-30T15:56:10.671Z,1.80
2022-09-30T16:01:39.012Z,2.10
2022-09-30T16:07:09.428Z,1.97
2022-09-30T16:12:36.014Z,1.53
2022-09-30T16:18:06.485Z,2.23
2022-09-30T16:23:32.834Z,2.67
2022-09-30T16:28:56.002Z,2.67
2022-09-30T16:34:23.817Z,2.17
2022-09-30T16:39:47.486Z,2.43
2022-09-30T16:45:12.998Z,2.80
2022-09-30T16:50:40.326Z,3.30
2022-09-30T16:56:03.397Z,3.20
2022-09-30T17:01:26.953Z,2.97
2022-09-30T17:06:51.437Z,3.27
2022-09-30T17:12:14.654Z,2.60
2022-09-30T17:17:37.707Z,2.10
2022-09-30T17:23:07.327Z,2.40
2022-09-30T17:28:34.302Z,2.47
2022-09-30T17:33:57.629Z,2.60
2022-09-30T17:39:22.100Z,2.53
2022-09-30T17:44:45.187Z,3.50
2022-09-30T17:50:10.054Z,3.13
2022-09-30T17:55:34.728Z,2.60
2022-09-30T18:00:59.400Z,2.50
2022-09-30T18:06:22.557Z,2.30
2022-09-30T18:11:47.107Z,2.20
2022-09-30T18:17:10.394Z,2.70
2022-09-30T18:22:33.404Z,2.30
2022-09-30T18:28:00.278Z,1.60
2022-09-30T18:33:23.427Z,2.50
2022-09-30T18:38:46.549Z,2.67
2022-09-30T18:44:11.140Z,2.67
2022-09-30T18:49:34.156Z,2.07
2022-09-30T18:54:57.254Z,1.90
2022-09-30T19:00:23.726Z,2.60
2022-09-30T19:05:46.718Z,2.30
2022-09-30T19:11:13.900Z,1.70
2022-09-30T19:16:39.032Z,2.53
2022-09-30T19:22:02.964Z,2.13
2022-09-30T19:27:27.006Z,3.40
2022-09-30T19:32:59.151Z,2.40
2022-09-30T19:38:33.934Z,2.33
2022-09-30T19:44:01.992Z,2.50
2022-09-30T19:49:26.470Z,3.03
2022-09-30T19:54:50.758Z,1.50
2022-09-30T20:00:14.299Z,2.20
2022-09-30T20:05:39.013Z,2.37
2022-09-30T20:11:03.207Z,2.40
2022-09-30T20:16:26.417Z,2.67
2022-09-30T20:21:51.050Z,1.80
2022-09-30T20:27:14.044Z,2.10
2022-09-30T20:32:39.470Z,4.00
2022-09-30T20:38:03.866Z,2.70
2022-09-30T20:43:29.961Z,2.57
2022-09-30T20:48:54.811Z,2.40
2022-09-30T20:54:22.496Z,2.33
2022-09-30T20:59:46.557Z,2.20
2022-09-30T21:05:10.277Z,2.20
2022-09-30T21:10:35.896Z,1.80
2022-09-30T21:16:01.627Z,2.00
2022-09-30T21:21:26.746Z,1.53
2022-09-30T21:26:51.059Z,1.87
2022-09-30T21:32:15.328Z,2.03
2022-09-30T21:37:38.380Z,2.23
2022-09-30T21:43:02.776Z,2.50
2022-09-30T21:48:25.813Z,2.13
2022-09-30T21:53:49.874Z,2.17
2022-09-30T21:59:14.349Z,2.77
2022-09-30T22:04:38.902Z,2.30
2022-09-30T22:10:02.032Z,3.30
2022-09-30T22:15:26.543Z,2.30
2022-09-30T22:20:49.566Z,2.10
2022-09-30T22:26:14.581Z,3.07
2022-09-30T22:31:39.725Z,2.43
2022-09-30T22:37:20.264Z,1.77
2022-09-30T22:42:43.241Z,2.27
2022-09-30T22:48:07.675Z,2.20
2022-09-30T22:53:30.662Z,3.20
2022-09-30T22:58:53.816Z,2.17
2022-09-30T23:04:18.887Z,2.40
2022-09-30T23:09:42.044Z,2.50
2022-09-30T23:15:07.378Z,2.70
2022-09-30T23:20:31.701Z,2.23
2022-09-30T23:26:01.834Z,2.70
2022-09-30T23:31:25.089Z,2.20
2022-09-30T23:36:49.593Z,2.37
2022-09-30T23:42:12.573Z,2.63
2022-09-30T23:47:35.549Z,2.53
2022-09-30T23:53:00.091Z,2.37
2022-09-30T23:58:23.273Z,3.40
